Time;durP1;ratioP1;P1;durP2;ratioP2;P2;SDS_P1;SDS_P2;PMS_P1;PMS_P2;Temp;Humidity;BMP_temperature;BMP_pressure;BME280_temperature;BME280_humidity;BME280_pressure;Samples;Min_cycle;Max_cycle;Signal;HPM_P1;HPM_P2
2021/06/10 00:01:07;;;;;;;3.67;2.03;;;;;;;19.87;49.00;99693.50;5014744;28;20042;-66
2021/06/10 00:03:36;;;;;;;7.10;1.95;;;;;;;19.94;48.57;99694.94;5015170;28;20045;-65
2021/06/10 00:06:08;;;;;;;3.67;1.95;;;;;;;20.02;47.77;99702.44;5014787;28;20085;-65
2021/06/10 00:08:37;;;;;;;4.55;2.03;;;;;;;20.01;47.68;99701.56;5015040;28;20132;-65
2021/06/10 00:11:06;;;;;;;3.50;1.90;;;;;;;19.98;47.59;99686.16;5013749;28;20073;-65
2021/06/10 00:13:35;;;;;;;3.85;2.00;;;;;;;19.93;48.17;99688.09;5014735;28;20070;-65
2021/06/10 00:16:10;;;;;;;4.68;1.80;;;;;;;19.97;48.00;99692.25;5014640;28;20061;-65
2021/06/10 00:18:40;;;;;;;4.13;1.85;;;;;;;20.01;47.45;99696.41;5014794;28;20092;-65
2021/06/10 00:21:09;;;;;;;3.17;1.92;;;;;;;20.03;47.07;99692.00;5014236;28;20053;-64
2021/06/10 00:23:38;;;;;;;;;;;;;;;20.08;46.84;99697.84;5014902;28;20447;-65
2021/06/10 00:26:09;;;;;;;3.10;1.88;;;;;;;20.06;46.82;99699.66;5014497;28;19975;-65
2021/06/10 00:28:38;;;;;;;3.35;1.80;;;;;;;20.06;46.85;99693.63;5014473;28;20054;-64
2021/06/10 00:31:08;;;;;;;3.30;1.80;;;;;;;20.04;47.04;99696.28;5014348;28;20052;-65
2021/06/10 00:33:37;;;;;;;5.25;1.90;;;;;;;19.95;47.47;99686.28;5013618;28;20176;-65
2021/06/10 00:36:08;;;;;;;2.90;1.60;;;;;;;20.00;47.45;99699.06;4650478;22;20054;-65
2021/06/10 00:38:37;;;;;;;3.08;1.90;;;;;;;19.98;47.28;99696.53;5032661;28;20053;-65
2021/06/10 00:41:09;;;;;;;4.25;2.20;;;;;;;19.93;47.48;99692.44;5034050;28;20060;-66
2021/06/10 00:43:41;;;;;;;3.10;1.80;;;;;;;19.94;47.28;99694.94;5033919;28;20057;-64
2021/06/10 00:46:14;;;;;;;3.45;2.03;;;;;;;19.91;47.37;99704.59;5034264;28;20046;-63
2021/06/10 00:48:46;;;;;;;3.13;1.63;;;;;;;19.91;47.30;99689.06;5034211;28;20057;-64
2021/06/10 00:51:18;;;;;;;5.22;1.80;;;;;;;19.91;47.08;99705.44;5034174;28;20092;-63
2021/06/10 00:53:50;;;;;;;3.70;1.90;;;;;;;19.82;47.18;99692.81;5033664;28;20050;-64
2021/06/10 00:56:19;;;;;;;3.90;1.90;;;;;;;19.91;47.17;99702.00;5033684;28;20053;-64
2021/06/10 00:58:53;;;;;;;3.83;1.90;;;;;;;19.86;47.45;99704.78;5033444;28;20046;-63
2021/06/10 01:01:23;;;;;;;5.63;1.85;;;;;;;19.82;47.87;99705.78;5034068;28;20073;-64
2021/06/10 01:03:55;;;;;;;4.03;2.03;;;;;;;19.81;47.92;99696.34;5033686;28;20053;-64
2021/06/10 01:06:31;;;;;;;4.38;1.77;;;;;;;19.66;48.93;99707.25;5033718;28;20053;-63
2021/06/10 01:09:06;;;;;;;4.07;2.10;;;;;;;19.58;49.12;99704.09;5033552;28;20069;-63
2021/06/10 01:11:43;;;;;;;4.72;2.40;;;;;;;19.55;49.63;99700.78;5033964;28;20438;-63
2021/06/10 01:14:24;;;;;;;4.75;2.33;;;;;;;19.52;49.56;99706.94;5033601;28;20407;-64
2021/06/10 01:17:01;;;;;;;5.25;2.28;;;;;;;19.45;49.65;99700.28;5033383;28;20067;-63
2021/06/10 01:19:51;;;;;;;4.47;2.10;;;;;;;19.38;49.96;99704.00;5033900;28;20063;-63
2021/06/10 01:22:34;;;;;;;3.42;2.05;;;;;;;19.23;50.35;99701.91;5033440;28;20041;-64
2021/06/10 01:25:25;;;;;;;3.40;1.92;;;;;;;19.16;50.60;99703.88;5033569;28;20128;-64
2021/06/10 01:28:01;;;;;;;4.05;2.13;;;;;;;19.12;50.73;99698.88;5033463;28;20140;-63
2021/06/10 01:30:37;;;;;;;4.43;2.05;;;;;;;19.11;50.81;99702.34;5033778;28;20453;-63
2021/06/10 01:33:12;;;;;;;5.78;2.15;;;;;;;18.93;51.83;99690.06;5033404;28;20119;-64
2021/06/10 01:35:50;;;;;;;6.57;2.17;;;;;;;18.92;52.06;99694.38;5033429;28;20443;-63
2021/06/10 01:38:20;;;;;;;3.92;2.15;;;;;;;18.98;51.43;99698.50;5032518;28;20510;-63
2021/06/10 01:40:53;;;;;;;3.92;2.00;;;;;;;18.96;51.04;99695.97;5033432;28;20061;-63
2021/06/10 01:43:29;;;;;;;4.57;2.10;;;;;;;18.92;51.24;99693.53;5033344;28;20115;-64
2021/06/10 01:46:01;;;;;;;4.68;2.15;;;;;;;18.88;51.41;99702.31;5033362;28;20136;-64
2021/06/10 01:48:36;;;;;;;3.83;2.20;;;;;;;18.84;51.70;99692.94;5033332;28;20091;-64
2021/06/10 01:51:09;;;;;;;4.10;1.98;;;;;;;18.73;52.26;99695.91;5033338;28;20076;-63
2021/06/10 01:53:41;;;;;;;4.03;2.40;;;;;;;18.72;52.37;99697.63;5033130;28;20081;-64
2021/06/10 01:56:14;;;;;;;4.05;2.50;;;;;;;18.73;52.42;99698.50;5033242;28;20143;-64
2021/06/10 01:58:48;;;;;;;5.85;2.83;;;;;;;18.76;52.59;99698.41;5033562;28;20128;-63
2021/06/10 02:01:23;;;;;;;5.25;3.00;;;;;;;18.71;52.88;99695.94;5032102;28;20071;-64
2021/06/10 02:03:58;;;;;;;6.28;2.92;;;;;;;18.66;53.28;99687.53;5033151;28;20049;-64
2021/06/10 02:06:29;;;;;;;5.82;3.25;;;;;;;18.45;54.21;99688.16;5033501;28;20582;-64
2021/06/10 02:09:01;;;;;;;8.43;2.85;;;;;;;18.48;54.37;99682.09;5033493;28;20477;-63
2021/06/10 02:11:33;;;;;;;5.88;3.40;;;;;;;18.52;54.35;99688.88;5036996;28;20123;-64
2021/06/10 02:14:04;;;;;;;7.22;3.30;;;;;;;18.49;54.64;99694.97;5036424;28;20494;-64
2021/06/10 02:16:38;;;;;;;4.28;2.95;;;;;;;18.43;54.57;99694.28;5036604;28;20095;-62
2021/06/10 02:19:12;;;;;;;5.57;3.08;;;;;;;18.36;55.18;99691.06;5036488;28;20045;-62
2021/06/10 02:21:44;;;;;;;5.35;3.08;;;;;;;18.31;55.29;99690.34;5036772;28;20045;-64
2021/06/10 02:24:16;;;;;;;6.65;3.10;;;;;;;18.34;55.19;99690.25;5035264;28;20099;-64
2021/06/10 02:26:45;;;;;;;5.35;3.42;;;;;;;18.36;54.98;99691.06;5036673;28;20041;-63
2021/06/10 02:29:18;;;;;;;5.28;3.00;;;;;;;18.37;55.26;99690.16;5036388;28;20073;-64
2021/06/10 02:31:54;;;;;;;6.75;3.30;;;;;;;18.34;55.18;99692.84;5035836;28;20076;-63
2021/06/10 02:37:30;;;;;;;6.50;3.83;;;;;;;18.29;55.49;99686.97;4414814;28;20057;-64
2021/06/10 02:40:09;;;;;;;7.57;3.65;;;;;;;18.25;55.59;99690.56;5016645;28;20050;-65
2021/06/10 02:42:42;;;;;;;6.38;3.30;;;;;;;18.23;56.01;99692.34;5016341;28;20069;-64
2021/06/10 02:45:17;;;;;;;6.45;3.45;;;;;;;18.07;56.58;99691.13;5016038;28;20050;-65
2021/06/10 02:47:49;;;;;;;5.40;3.30;;;;;;;17.88;57.63;99700.31;5016179;28;20462;-65
2021/06/10 02:50:23;;;;;;;6.32;3.50;;;;;;;17.86;57.87;99696.94;5016190;28;20060;-64
2021/06/10 02:52:55;;;;;;;6.28;3.75;;;;;;;17.77;58.55;99697.22;5016679;28;20081;-64
2021/06/10 02:55:30;;;;;;;6.28;3.58;;;;;;;17.58;59.28;99694.34;5015782;28;20045;-64
2021/06/10 02:58:03;;;;;;;6.00;3.20;;;;;;;17.39;59.63;99681.09;5016009;28;20092;-64
2021/06/10 03:00:36;;;;;;;6.63;3.63;;;;;;;17.30;60.34;99699.38;5016165;28;20114;-64
2021/06/10 03:03:13;;;;;;;5.05;3.45;;;;;;;17.26;60.83;99695.22;5015966;28;20061;-64
2021/06/10 03:05:46;;;;;;;6.57;3.50;;;;;;;17.26;60.84;99699.50;5016138;28;20074;-64
2021/06/10 03:08:20;;;;;;;5.90;3.65;;;;;;;17.26;60.82;99700.38;5015834;28;20054;-64
2021/06/10 03:10:56;;;;;;;5.40;3.80;;;;;;;17.32;60.83;99700.19;5015791;28;20410;-64
2021/06/10 03:13:31;;;;;;;8.07;3.80;;;;;;;17.31;61.03;99698.50;5015776;28;20054;-64
2021/06/10 03:16:05;;;;;;;7.13;3.90;;;;;;;17.44;60.59;99694.69;5015328;28;20124;-64
2021/06/10 03:18:38;;;;;;;8.25;3.90;;;;;;;17.54;60.21;99691.91;5015662;28;20045;-67
2021/06/10 03:21:07;;;;;;;7.65;4.18;;;;;;;17.57;60.12;99691.78;5015200;28;20549;-64
2021/06/10 03:23:39;;;;;;;7.55;4.20;;;;;;;17.64;59.79;99690.72;5015813;28;20058;-64
2021/06/10 03:26:09;;;;;;;7.47;3.80;;;;;;;17.73;59.73;99705.97;5015508;28;20054;-65
2021/06/10 03:28:42;;;;;;;6.70;4.20;;;;;;;17.75;59.15;99709.34;5015724;28;20046;-64
2021/06/10 03:31:13;;;;;;;6.55;3.75;;;;;;;17.83;59.53;99712.53;5015461;28;20092;-64
2021/06/10 03:33:45;;;;;;;6.88;3.92;;;;;;;17.86;59.37;99712.44;5015597;28;20058;-65
2021/06/10 03:36:15;;;;;;;7.75;3.97;;;;;;;17.71;59.35;99708.56;5015088;28;20495;-64
2021/06/10 03:38:48;;;;;;;6.47;4.25;;;;;;;17.81;58.55;99715.16;5015243;28;20061;-65
2021/06/10 03:41:19;;;;;;;6.93;4.28;;;;;;;17.83;58.74;99718.53;5015986;28;20141;-65
2021/06/10 03:43:52;;;;;;;8.60;4.85;;;;;;;17.91;58.46;99720.91;5015224;28;20056;-65
2021/06/10 03:46:23;;;;;;;7.03;4.47;;;;;;;17.96;58.25;99719.88;5015119;28;20395;-65
2021/06/10 03:48:59;;;;;;;8.43;4.65;;;;;;;17.91;58.69;99726.06;4997506;28;20050;-64
2021/06/10 03:51:31;;;;;;;7.55;4.65;;;;;;;17.75;59.64;99730.00;5015298;28;20046;-64
2021/06/10 03:54:05;;;;;;;7.15;4.20;;;;;;;17.74;60.04;99723.13;5015194;28;20449;-64
2021/06/10 03:56:35;;;;;;;7.95;4.43;;;;;;;17.78;60.44;99724.75;5015145;28;20046;-64
2021/06/10 03:59:07;;;;;;;6.47;3.78;;;;;;;17.96;59.79;99734.53;5014893;28;20064;-64
2021/06/10 04:01:38;;;;;;;7.13;4.00;;;;;;;18.19;59.30;99732.06;5015192;28;20129;-64
2021/06/10 04:04:10;;;;;;;5.57;3.97;;;;;;;18.33;58.25;99734.25;5014803;28;20058;-64
2021/06/10 04:06:39;;;;;;;5.88;4.03;;;;;;;18.38;58.43;99738.38;5014967;28;20112;-64
2021/06/10 04:09:11;;;;;;;6.22;4.18;;;;;;;18.52;57.91;99736.22;5014371;28;20384;-64
2021/06/10 04:11:44;;;;;;;7.25;4.25;;;;;;;18.67;57.74;99735.72;5014710;28;20054;-64
2021/06/10 04:14:15;;;;;;;7.85;3.80;;;;;;;18.72;57.08;99733.84;5014866;28;20061;-64
2021/06/10 04:16:46;;;;;;;5.80;3.58;;;;;;;18.77;56.71;99730.25;5014624;28;20076;-64
2021/06/10 04:19:18;;;;;;;8.10;4.47;;;;;;;18.88;56.25;99738.50;5014586;28;20066;-64
2021/06/10 04:21:49;;;;;;;7.38;4.07;;;;;;;18.99;55.94;99745.00;5014792;28;20070;-64
2021/06/10 04:24:21;;;;;;;6.68;4.22;;;;;;;19.16;55.44;99741.84;5014800;28;20483;-64
2021/06/10 04:26:53;;;;;;;17.48;9.07;;;;;;;19.33;55.24;99747.28;5014405;28;20514;-63
2021/06/10 04:29:25;;;;;;;7.88;4.40;;;;;;;19.45;55.02;99746.88;5014674;28;20061;-64
2021/06/10 04:31:58;;;;;;;5.95;3.65;;;;;;;19.63;54.78;99751.38;5013671;28;20084;-64
2021/06/10 04:34:30;;;;;;;7.88;4.07;;;;;;;19.76;54.24;99746.63;5014291;28;20558;-64
2021/06/10 04:37:02;;;;;;;5.88;3.60;;;;;;;19.93;53.76;99747.69;5013447;28;20057;-63
2021/06/10 04:39:34;;;;;;;7.72;3.25;;;;;;;20.07;52.91;99744.56;5014204;28;20065;-64
2021/06/10 04:42:08;;;;;;;5.53;3.10;;;;;;;20.16;52.49;99745.94;5014239;28;20058;-65
2021/06/10 04:44:40;;;;;;;9.70;2.97;;;;;;;20.35;51.94;99752.13;5014147;28;20108;-64
2021/06/10 04:47:13;;;;;;;8.60;3.83;;;;;;;20.52;51.77;99749.72;5014167;28;20120;-63
2021/06/10 04:49:45;;;;;;;6.10;3.50;;;;;;;20.62;51.70;99746.72;5014042;28;20133;-64
2021/06/10 04:52:17;;;;;;;7.15;3.90;;;;;;;20.71;51.79;99742.88;5014107;28;20057;-64
2021/06/10 04:54:49;;;;;;;7.57;3.72;;;;;;;20.79;51.67;99748.59;5014206;28;20499;-64
2021/06/10 04:57:21;;;;;;;6.57;3.58;;;;;;;20.85;51.73;99743.16;5013977;28;20057;-64
2021/06/10 04:59:53;;;;;;;4.70;3.00;;;;;;;21.01;51.72;99752.00;5014175;28;20088;-64
2021/06/10 05:02:27;;;;;;;5.40;3.45;;;;;;;21.13;51.35;99748.06;5014192;28;20058;-64
2021/06/10 05:04:59;;;;;;;6.82;3.28;;;;;;;21.27;51.40;99746.59;5014718;28;20050;-63
2021/06/10 05:07:32;;;;;;;5.75;3.25;;;;;;;21.29;51.20;99739.56;5013951;28;20133;-64
2021/06/10 05:10:04;;;;;;;5.03;3.08;;;;;;;21.53;51.06;99744.59;5013812;28;20080;-64
2021/06/10 05:12:37;;;;;;;5.00;2.88;;;;;;;21.63;50.33;99748.47;5013899;28;20060;-64
2021/06/10 05:15:10;;;;;;;5.40;2.85;;;;;;;21.80;49.99;99745.97;5013709;28;20060;-64
2021/06/10 05:17:48;;;;;;;7.32;3.40;;;;;;;21.99;49.69;99742.47;5013629;28;20403;-65
2021/06/10 05:20:37;;;;;;;6.22;2.80;;;;;;;22.19;49.23;99744.16;4992202;28;20059;-64
2021/06/10 05:23:11;;;;;;;9.30;2.72;;;;;;;22.30;49.14;99747.09;4992486;28;20053;-65
2021/06/10 05:25:43;;;;;;;8.40;2.90;;;;;;;22.39;48.86;99745.78;4992248;28;20097;-64
2021/06/10 05:28:18;;;;;;;5.05;2.60;;;;;;;22.55;48.74;99752.81;4992385;28;20059;-64
2021/06/10 05:30:47;;;;;;;5.40;2.75;;;;;;;22.65;49.12;99753.25;4992084;28;20066;-64
2021/06/10 05:33:20;;;;;;;12.30;5.22;;;;;;;22.78;48.85;99743.91;4992260;28;20051;-64
2021/06/10 05:35:55;;;;;;;4.57;2.80;;;;;;;22.95;48.68;99750.88;4991497;28;20070;-64
2021/06/10 05:38:28;;;;;;;7.22;3.05;;;;;;;23.04;48.67;99746.03;4993213;28;20050;-64
2021/06/10 05:41:00;;;;;;;4.85;2.90;;;;;;;23.13;48.58;99747.34;4994044;28;20054;-64
2021/06/10 05:43:34;;;;;;;5.72;3.35;;;;;;;23.27;48.62;99744.88;4995140;28;20146;-64
2021/06/10 05:46:06;;;;;;;7.40;2.83;;;;;;;23.44;48.48;99744.88;4997740;28;20054;-64
2021/06/10 05:48:40;;;;;;;5.18;2.30;;;;;;;23.62;48.03;99738.69;4997752;28;20062;-64
2021/06/10 05:51:12;;;;;;;6.07;2.38;;;;;;;23.75;47.40;99744.94;4997684;28;20061;-64
2021/06/10 05:53:44;;;;;;;4.70;2.35;;;;;;;23.87;45.82;99739.03;4997413;28;20046;-64
2021/06/10 05:56:16;;;;;;;5.90;2.85;;;;;;;24.02;45.17;99741.78;4997358;28;20108;-63
2021/06/10 05:58:47;;;;;;;4.32;2.03;;;;;;;24.10;44.23;99735.22;4997570;28;20462;-63
2021/06/10 06:01:19;;;;;;;3.60;2.28;;;;;;;24.23;43.80;99736.25;4997453;28;20049;-65
2021/06/10 06:03:51;;;;;;;4.22;2.30;;;;;;;24.35;44.07;99739.94;4997186;28;20062;-64
2021/06/10 06:06:20;;;;;;;3.55;2.00;;;;;;;24.48;43.26;99735.69;4997631;28;20145;-63
2021/06/10 06:08:52;;;;;;;3.75;2.10;;;;;;;24.54;42.83;99736.22;4997352;28;20042;-64
2021/06/10 06:11:21;;;;;;;4.15;2.10;;;;;;;24.65;42.40;99741.66;4997089;28;20046;-62
2021/06/10 06:13:54;;;;;;;4.20;2.30;;;;;;;24.65;41.87;99740.81;4997129;28;20479;-62
2021/06/10 06:16:23;;;;;;;4.47;2.10;;;;;;;24.73;41.83;99741.22;4997016;28;20050;-64
2021/06/10 06:18:57;;;;;;;3.03;2.00;;;;;;;24.89;41.53;99742.03;4997156;28;20058;-63
2021/06/10 06:21:26;;;;;;;4.80;2.17;;;;;;;24.94;41.27;99747.81;4997161;28;20058;-64
2021/06/10 06:23:57;;;;;;;8.55;3.08;;;;;;;24.98;41.22;99745.91;4996987;28;20050;-62
2021/06/10 06:26:25;;;;;;;4.15;2.30;;;;;;;24.98;40.87;99741.47;4995668;28;20486;-63
2021/06/10 06:29:00;;;;;;;4.55;2.20;;;;;;;25.00;40.89;99739.63;4996899;28;20518;-63
2021/06/10 06:31:29;;;;;;;6.65;3.10;;;;;;;25.20;40.85;99741.91;4996928;28;20050;-63
2021/06/10 06:34:03;;;;;;;6.45;2.83;;;;;;;25.31;41.05;99747.31;4997213;28;20047;-63
2021/06/10 06:36:32;;;;;;;5.68;2.10;;;;;;;25.38;40.56;99741.75;5004299;28;20062;-62
2021/06/10 06:39:08;;;;;;;7.35;2.60;;;;;;;25.37;40.15;99732.19;5016453;28;20578;-63
2021/06/10 06:41:38;;;;;;;5.00;2.53;;;;;;;25.49;40.31;99742.78;5016554;28;20062;-64
2021/06/10 06:44:07;;;;;;;4.10;2.20;;;;;;;25.45;39.55;99750.91;5016181;28;20120;-63
2021/06/10 06:46:37;;;;;;;4.93;2.70;;;;;;;25.42;39.91;99740.59;5016109;28;20042;-64
2021/06/10 06:49:11;;;;;;;5.15;2.42;;;;;;;25.60;40.08;99734.31;5016069;28;20466;-65
2021/06/10 06:51:40;;;;;;;4.40;2.50;;;;;;;25.64;39.43;99735.78;5015924;28;20410;-65
2021/06/10 06:54:12;;;;;;;7.10;2.50;;;;;;;25.75;39.47;99743.81;5015942;28;20042;-63
2021/06/10 06:56:45;;;;;;;4.82;2.30;;;;;;;25.79;39.13;99747.94;5015196;28;20054;-63
2021/06/10 06:59:17;;;;;;;6.22;2.42;;;;;;;25.91;38.72;99750.59;5015951;28;20073;-65
2021/06/10 07:01:46;;;;;;;6.45;2.40;;;;;;;26.00;38.67;99751.81;5015868;28;20071;-65
2021/06/10 07:04:19;;;;;;;6.13;2.50;;;;;;;26.02;38.73;99751.72;5015556;28;20069;-63
2021/06/10 07:06:52;;;;;;;3.95;2.08;;;;;;;26.15;38.37;99758.75;5015743;28;20279;-64
2021/06/10 07:09:28;;;;;;;6.95;2.92;;;;;;;26.25;37.96;99745.91;5015481;28;20062;-63
2021/06/10 07:11:57;;;;;;;5.57;2.30;;;;;;;26.25;37.52;99757.19;5015674;28;20053;-65
2021/06/10 07:14:29;;;;;;;3.40;2.03;;;;;;;26.36;38.02;99748.69;5015489;28;20049;-63
2021/06/10 07:17:01;;;;;;;5.35;2.17;;;;;;;26.32;37.44;99745.41;5015596;28;20497;-64
2021/06/10 07:19:35;;;;;;;4.32;2.00;;;;;;;26.10;37.15;99700.59;5015567;28;20081;-64
2021/06/10 07:22:04;;;;;;;3.17;1.90;;;;;;;26.40;36.79;99753.63;5015455;28;20042;-64
2021/06/10 07:24:46;;;;;;;3.75;1.92;;;;;;;26.41;36.49;99752.69;5015475;28;20129;-65
2021/06/10 07:27:15;;;;;;;4.93;2.22;;;;;;;26.44;36.97;99749.03;5015276;28;20050;-64
2021/06/10 07:29:44;;;;;;;5.30;2.20;;;;;;;26.45;37.55;99756.78;4997761;28;20038;-65
2021/06/10 07:32:13;;;;;;;7.50;2.25;;;;;;;26.60;37.59;99750.56;5015049;28;20108;-66
2021/06/10 07:34:46;;;;;;;;;;;;;;;26.72;37.56;99756.75;5016552;28;20089;-66
2021/06/10 07:37:15;;;;;;;3.70;2.00;;;;;;;26.80;36.39;99751.06;5014365;28;19921;-63
2021/06/10 07:39:45;;;;;;;6.78;2.25;;;;;;;26.85;37.06;99755.03;5014851;28;20500;-65
2021/06/10 07:42:13;;;;;;;4.20;1.90;;;;;;;26.73;36.41;99755.00;5014763;28;20038;-64
2021/06/10 07:44:43;;;;;;;6.20;2.90;;;;;;;26.78;36.59;99759.00;5014821;28;20495;-63
2021/06/10 07:47:13;;;;;;;3.28;1.90;;;;;;;26.81;36.31;99747.47;5014758;28;20176;-66
2021/06/10 07:49:42;;;;;;;4.50;2.10;;;;;;;26.93;36.38;99749.28;5014836;28;20053;-65
2021/06/10 07:52:12;;;;;;;7.40;2.30;;;;;;;26.91;36.30;99752.03;5014568;28;20065;-64
2021/06/10 07:54:41;;;;;;;4.68;1.85;;;;;;;27.05;36.21;99764.19;5014732;28;20061;-65
2021/06/10 07:57:14;;;;;;;3.35;1.67;;;;;;;27.11;35.82;99761.19;5014854;28;20479;-65
2021/06/10 07:59:44;;;;;;;6.95;2.30;;;;;;;27.06;35.74;99752.78;5014591;28;20054;-65
2021/06/10 08:02:41;;;;;;;3.17;1.67;;;;;;;27.28;35.33;99760.88;5014538;28;20068;-64
2021/06/10 08:05:11;;;;;;;;;;;;;;;27.13;35.06;99759.28;5015138;28;20057;-65
2021/06/10 08:07:42;;;;;;;;;;;;;;;27.13;34.89;99759.28;5014811;28;19989;-63
2021/06/10 08:10:12;;;;;;;4.43;2.33;;;;;;;27.21;34.77;99757.00;5014401;28;19921;-64
2021/06/10 08:12:48;;;;;;;4.22;1.70;;;;;;;27.27;35.15;99757.41;5014351;28;20100;-65
2021/06/10 08:15:18;;;;;;;6.50;2.17;;;;;;;27.40;35.38;99761.84;5014865;28;20065;-65
2021/06/10 08:17:46;;;;;;;;;;;;;;;27.52;35.07;99761.00;5014756;28;20050;-63
2021/06/10 08:20:19;;;;;;;4.13;1.93;;;;;;;27.52;34.56;99761.81;5014467;28;19921;-65
2021/06/10 08:22:55;;;;;;;5.22;1.73;;;;;;;27.59;35.36;99760.50;5014523;28;20140;-65
2021/06/10 08:25:24;;;;;;;2.53;1.40;;;;;;;27.48;34.57;99763.00;5014135;28;20069;-64
2021/06/10 08:27:53;;;;;;;6.03;1.90;;;;;;;27.42;34.23;99760.81;5014440;28;20444;-65
2021/06/10 08:30:24;;;;;;;3.40;1.90;;;;;;;27.49;34.31;99761.22;5014292;28;20084;-65
2021/06/10 08:32:52;;;;;;;2.75;1.60;;;;;;;27.54;33.80;99759.97;5014025;28;20057;-65
2021/06/10 08:35:21;;;;;;;4.22;2.13;;;;;;;27.81;34.24;99763.25;5014324;28;20049;-64
2021/06/10 08:37:56;;;;;;;3.55;1.83;;;;;;;28.03;33.96;99761.78;5013673;28;20062;-64
2021/06/10 08:40:25;;;;;;;3.13;1.63;;;;;;;28.06;32.84;99762.41;5014236;28;20053;-66
2021/06/10 08:42:58;;;;;;;6.40;1.90;;;;;;;28.10;32.80;99760.44;5013911;28;20059;-64
2021/06/10 08:45:30;;;;;;;3.85;1.67;;;;;;;28.12;32.71;99771.66;5014401;28;20049;-66
2021/06/10 08:48:01;;;;;;;3.03;1.63;;;;;;;28.13;32.46;99757.56;5014208;28;20491;-65
2021/06/10 08:50:34;;;;;;;2.58;1.80;;;;;;;28.22;32.61;99767.41;5014069;28;20057;-64
2021/06/10 08:53:07;;;;;;;3.50;1.60;;;;;;;28.34;32.92;99758.63;5014095;28;20125;-63
2021/06/10 08:55:36;;;;;;;5.97;1.63;;;;;;;28.48;33.42;99764.56;5013959;28;20066;-63
2021/06/10 08:58:05;;;;;;;2.63;1.60;;;;;;;28.41;31.63;99757.28;5013803;28;20057;-64
2021/06/10 09:00:35;;;;;;;5.75;1.63;;;;;;;28.29;31.77;99763.41;5013717;28;20053;-64
2021/06/10 09:03:06;;;;;;;3.25;1.55;;;;;;;28.37;32.32;99755.78;5013980;28;20042;-64
2021/06/10 09:05:34;;;;;;;4.40;1.73;;;;;;;28.38;32.50;99762.72;5013675;28;20483;-64
2021/06/10 09:08:06;;;;;;;4.37;1.60;;;;;;;28.34;31.54;99767.34;5013600;28;20038;-65
2021/06/10 09:10:38;;;;;;;6.30;2.05;;;;;;;28.48;31.56;99759.31;5013608;28;20073;-64
2021/06/10 09:13:10;;;;;;;2.90;1.40;;;;;;;28.63;31.32;99746.88;5013795;28;20088;-66
2021/06/10 09:15:39;;;;;;;4.40;1.70;;;;;;;28.85;31.50;99760.09;5013784;28;20057;-65
2021/06/10 09:18:08;;;;;;;5.38;1.60;;;;;;;28.96;30.98;99757.50;5014472;28;20070;-65
2021/06/10 09:20:42;;;;;;;4.32;1.77;;;;;;;28.88;32.02;99759.88;5018084;28;20054;-65
2021/06/10 09:23:19;;;;;;;3.40;1.50;;;;;;;28.72;31.78;99759.34;5017841;28;20080;-64
2021/06/10 09:25:58;;;;;;;3.20;1.60;;;;;;;28.62;30.91;99755.72;5017651;28;20060;-65
2021/06/10 09:28:31;;;;;;;;;;;;;;;28.68;31.24;99760.50;5017823;28;20061;-63
2021/06/10 09:30:59;;;;;;;13.07;2.78;;;;;;;28.70;31.21;99769.13;5017398;28;19921;-64
2021/06/10 09:33:38;;;;;;;3.83;1.40;;;;;;;28.69;30.88;99764.81;5017303;28;20116;-64
2021/06/10 09:36:08;;;;;;;7.55;1.77;;;;;;;28.59;30.42;99755.91;5017372;28;20093;-64
2021/06/10 09:38:41;;;;;;;;;;;;;;;28.68;30.40;99757.88;5017719;28;20479;-65
2021/06/10 09:41:10;;;;;;;5.50;2.00;;;;;;;28.85;30.73;99762.72;5017061;28;19922;-64
2021/06/10 09:43:43;;;;;;;3.78;1.75;;;;;;;28.88;30.71;99752.00;5017736;28;20133;-63
2021/06/10 09:46:12;;;;;;;4.55;1.70;;;;;;;28.83;31.16;99748.88;5017228;28;20050;-63
2021/06/10 09:48:42;;;;;;;3.35;1.92;;;;;;;28.85;31.67;99754.84;5015733;28;20058;-64
2021/06/10 09:51:21;;;;;;;3.63;1.70;;;;;;;28.80;31.00;99745.63;5017010;28;20423;-63
2021/06/10 09:53:52;;;;;;;3.85;1.73;;;;;;;29.01;31.58;99750.09;5017086;28;20042;-65
2021/06/10 09:56:24;;;;;;;3.30;2.00;;;;;;;29.32;31.71;99750.44;5016925;28;20405;-65
2021/06/10 09:58:57;;;;;;;5.45;2.00;;;;;;;29.38;31.23;99744.69;5017219;28;20395;-66
2021/06/10 10:01:26;;;;;;;6.70;2.33;;;;;;;29.46;31.24;99742.34;5016844;28;20488;-66
2021/06/10 10:03:55;;;;;;;3.33;1.73;;;;;;;29.60;31.08;99740.31;5016858;28;20065;-66
2021/06/10 10:06:27;;;;;;;3.20;1.85;;;;;;;29.59;30.29;99740.41;5017031;28;20503;-64
2021/06/10 10:09:01;;;;;;;3.25;1.60;;;;;;;29.43;30.67;99737.28;5016913;28;20483;-65
2021/06/10 10:11:32;;;;;;;3.92;1.85;;;;;;;29.41;29.99;99744.47;5017202;28;20050;-65
2021/06/10 10:14:06;;;;;;;3.38;1.80;;;;;;;29.36;29.33;99746.63;5016585;28;20545;-64
2021/06/10 10:16:36;;;;;;;4.20;1.70;;;;;;;29.28;29.29;99720.06;5016508;28;20049;-63
2021/06/10 10:19:05;;;;;;;3.50;1.75;;;;;;;29.09;29.12;99718.81;5016801;28;20130;-63
2021/06/10 10:21:36;;;;;;;2.65;1.60;;;;;;;29.33;30.75;99742.44;5016444;28;20061;-64
2021/06/10 10:24:12;;;;;;;2.47;1.50;;;;;;;29.56;30.24;99738.84;5016440;28;20053;-64
2021/06/10 10:26:41;;;;;;;4.22;1.80;;;;;;;29.63;29.68;99733.97;5016625;28;20058;-65
2021/06/10 10:29:17;;;;;;;2.40;1.52;;;;;;;29.69;29.52;99733.47;5016484;28;20384;-65
2021/06/10 10:31:50;;;;;;;3.80;1.95;;;;;;;29.67;29.41;99728.34;5016314;28;20053;-65
2021/06/10 10:34:27;;;;;;;2.40;1.45;;;;;;;29.37;28.72;99735.97;5016542;28;20082;-65
2021/06/10 10:36:56;;;;;;;3.35;1.67;;;;;;;29.18;28.54;99707.63;5016114;28;20084;-65
2021/06/10 10:39:36;;;;;;;3.47;1.80;;;;;;;29.30;28.56;99726.06;5016332;28;20045;-65
2021/06/10 10:42:06;;;;;;;2.25;1.42;;;;;;;29.43;28.57;99726.78;5016268;28;20502;-65
2021/06/10 10:44:39;;;;;;;3.13;1.50;;;;;;;29.53;28.96;99717.22;5016323;28;20141;-65
2021/06/10 10:47:10;;;;;;;3.63;1.58;;;;;;;29.63;29.53;99715.53;5016285;28;20050;-64
2021/06/10 10:49:40;;;;;;;3.38;1.60;;;;;;;29.80;29.30;99715.09;5015925;28;20519;-65
2021/06/10 10:52:28;;;;;;;3.60;1.50;;;;;;;29.98;28.42;99710.97;5015856;28;20057;-66
2021/06/10 10:55:15;;;;;;;2.67;1.45;;;;;;;30.13;28.51;99706.28;5016053;28;20149;-64
2021/06/10 10:57:45;;;;;;;3.00;1.83;;;;;;;30.04;27.68;99696.50;5016396;28;20129;-66
2021/06/10 11:00:21;;;;;;;3.55;1.50;;;;;;;29.92;28.51;99697.47;5015994;28;20058;-64
2021/06/10 11:03:27;;;;;;;4.90;1.98;;;;;;;29.90;28.68;99646.75;5016197;28;20071;-65
2021/06/10 11:05:57;;;;;;;5.20;1.90;;;;;;;30.31;28.26;99689.81;5013627;28;20128;-66
2021/06/10 11:08:50;;;;;;;5.22;1.45;;;;;;;30.44;28.92;99695.78;5015992;28;20480;-65
2021/06/10 11:11:22;;;;;;;3.30;1.60;;;;;;;30.35;29.06;99690.44;5015618;28;20062;-63
2021/06/10 11:13:53;;;;;;;2.45;1.52;;;;;;;30.02;29.29;99687.88;5015448;28;20060;-64
2021/06/10 11:16:24;;;;;;;4.45;1.90;;;;;;;30.18;29.19;99681.25;5015811;28;20050;-64
2021/06/10 11:18:53;;;;;;;9.55;2.13;;;;;;;30.44;29.30;99687.03;5015413;28;20385;-64
2021/06/10 11:21:44;;;;;;;9.10;2.05;;;;;;;30.65;28.76;99687.88;5015734;28;20211;-65
2021/06/10 11:24:18;;;;;;;8.30;1.70;;;;;;;30.47;27.59;99684.16;5015480;28;20057;-63
2021/06/10 11:26:52;;;;;;;3.30;1.30;;;;;;;30.20;27.15;99681.94;5015311;28;20061;-64
2021/06/10 11:29:21;;;;;;;4.05;1.73;;;;;;;30.20;27.09;99678.47;5015321;28;20554;-64
2021/06/10 11:32:25;;;;;;;2.28;1.20;;;;;;;30.36;26.86;99682.38;5015682;28;20049;-64
2021/06/10 11:34:58;;;;;;;3.63;1.60;;;;;;;30.52;27.03;99665.31;5015302;28;20403;-65
2021/06/10 11:37:28;;;;;;;2.90;1.42;;;;;;;30.56;26.65;99664.09;5014227;28;20042;-63
2021/06/10 11:39:57;;;;;;;2.63;1.30;;;;;;;30.58;27.21;99664.81;5015042;28;20134;-64
2021/06/10 11:42:28;;;;;;;2.95;1.40;;;;;;;30.68;27.39;99660.44;5014585;28;20049;-64
2021/06/10 11:44:57;;;;;;;4.28;1.23;;;;;;;30.44;26.08;99658.91;5014984;28;20060;-67
2021/06/10 11:47:31;;;;;;;4.25;1.50;;;;;;;30.26;26.06;99664.78;5013637;28;20045;-65
2021/06/10 11:50:00;;;;;;;3.20;1.20;;;;;;;30.24;25.95;99651.75;5014919;28;20080;-64
2021/06/10 11:52:49;;;;;;;2.40;1.50;;;;;;;30.33;25.60;99650.19;5014613;28;20042;-65
2021/06/10 11:55:18;;;;;;;2.25;1.30;;;;;;;30.59;25.18;99645.41;5014573;28;20056;-64
2021/06/10 11:57:55;;;;;;;5.78;1.42;;;;;;;30.82;25.16;99644.28;5014309;28;20046;-67
2021/06/10 12:00:35;;;;;;;3.25;1.27;;;;;;;31.15;26.86;99638.81;5014614;28;20053;-66
2021/06/10 12:03:05;;;;;;;1.95;1.10;;;;;;;31.09;26.04;99610.31;5014529;28;20065;-64